Ledbetter, Kentucky
Current Conditions -  °F | °C
As of 9:53 AM on Friday 24 Oct 2014 (Local Time) from KPAH Reporting Station
Overcast Overcast  
Wind Chill: 55°   Ceiling: 3000
Heat Index: 55°   Visibility: 10mi
Dew Point: 49°   Wind: 6mph
Humidity: 80%   Direction: 250°WSW
Pressure: 30.14"   Gusts: NA
Location:  37.05°N, 88.5°W
Report Text: KPAH 241453Z 25005KT 10SM FEW023 OVC030 13/09 A3014 RMK AO2 SLP206 T01280094 51003
Loading
Personal Weather Stations






























Interactive Weather Map
Tropical Storm Tracking
New forecast layout! Learn more

10-Day Weather Forecast

Advertisements
Track Severe Weather on mobile